Time;durP1;ratioP1;P1;durP2;ratioP2;P2;SDS_P1;SDS_P2;PMS_P1;PMS_P2;Temp;Humidity;BMP_temperature;BMP_pressure;BME280_temperature;BME280_humidity;BME280_pressure;Samples;Min_cycle;Max_cycle;Signal;HPM_P1;HPM_P2
2023/08/29 00:02:24;;;;;;;;;;;17.40;57.50;;;;;;5031657;28;20045;-67
2023/08/29 00:04:49;;;;;;;;;;;17.30;57.50;;;;;;5031897;28;19920;-67
2023/08/29 00:07:15;;;;;;;;;;;17.30;57.60;;;;;;5031737;28;19924;-68
2023/08/29 00:09:40;;;;;;;;;;;17.30;57.50;;;;;;5031664;28;19913;-69
2023/08/29 00:12:06;;;;;;;;;;;17.20;57.60;;;;;;5014528;28;20016;-67
2023/08/29 00:14:31;;;;;;;;;;;17.20;57.50;;;;;;5011907;28;20583;-69
2023/08/29 00:16:57;;;;;;;;;;;17.20;57.70;;;;;;5011832;28;19914;-68
2023/08/29 00:19:22;;;;;;;;;;;17.10;57.70;;;;;;5030197;28;19917;-67
2023/08/29 00:21:48;;;;;;;;;;;17.10;57.70;;;;;;5030185;28;19918;-68
2023/08/29 00:24:14;;;;;;;;;;;17.10;57.70;;;;;;5030548;28;20390;-68
2023/08/29 00:26:39;;;;;;;;;;;17.00;57.70;;;;;;5029926;28;20003;-67
2023/08/29 00:29:05;;;;;;;;;;;17.00;57.80;;;;;;5030087;28;19927;-67
2023/08/29 00:31:30;;;;;;;;;;;17.00;57.80;;;;;;5029691;28;20284;-68
2023/08/29 00:33:56;;;;;;;;;;;17.00;57.90;;;;;;5034133;28;20075;-68
2023/08/29 00:36:21;;;;;;;;;;;16.90;57.90;;;;;;5033137;28;19921;-68
2023/08/29 00:38:47;;;;;;;;;;;16.90;57.90;;;;;;5032578;28;19913;-68
2023/08/29 00:41:12;;;;;;;;;;;16.90;58.40;;;;;;5033905;28;19917;-68
2023/08/29 00:43:38;;;;;;;;;;;16.90;58.50;;;;;;5035202;28;19913;-68
2023/08/29 00:46:04;;;;;;;;;;;16.90;58.70;;;;;;5033778;28;19971;-68
2023/08/29 00:48:31;;;;;;;;;;;16.90;58.80;;;;;;5034255;28;20292;-68
2023/08/29 00:50:57;;;;;;;;;;;16.80;58.70;;;;;;5035156;28;19917;-68
2023/08/29 00:53:22;;;;;;;;;;;16.80;58.80;;;;;;5035176;28;19917;-68
2023/08/29 00:55:48;;;;;;;;;;;16.80;58.70;;;;;;5031978;28;19967;-68
2023/08/29 00:58:13;;;;;;;;;;;16.80;58.60;;;;;;5034332;28;19925;-68
2023/08/29 01:00:39;;;;;;;;;;;16.80;58.50;;;;;;5034940;28;19913;-76
2023/08/29 01:03:05;;;;;;;;;;;16.70;58.70;;;;;;5038119;28;19982;-76
2023/08/29 01:05:30;;;;;;;;;;;16.70;58.80;;;;;;5037575;28;19940;-75
2023/08/29 01:07:58;;;;;;;;;;;16.70;59.00;;;;;;5036945;28;19921;-76
2023/08/29 01:10:30;;;;;;;;;;;16.70;59.10;;;;;;5036621;28;19936;-76
2023/08/29 01:13:03;;;;;;;;;;;16.60;59.20;;;;;;5036409;28;19917;-76
2023/08/29 01:15:30;;;;;;;;;;;16.60;59.20;;;;;;5037721;28;19920;-76
2023/08/29 01:18:00;;;;;;;;;;;16.60;59.20;;;;;;5036020;28;19917;-76
2023/08/29 01:20:29;;;;;;;;;;;16.60;59.30;;;;;;5037456;28;19913;-76
2023/08/29 01:22:58;;;;;;;;;;;16.50;59.30;;;;;;5035982;28;19924;-76
2023/08/29 01:25:23;;;;;;;;;;;16.60;59.20;;;;;;5035711;28;19914;-75
2023/08/29 01:27:49;;;;;;;;;;;16.60;59.20;;;;;;5034761;28;19944;-74
2023/08/29 01:30:15;;;;;;;;;;;16.60;59.10;;;;;;5035752;28;19913;-76
2023/08/29 01:32:40;;;;;;;;;;;16.60;59.20;;;;;;5035791;28;20011;-75
2023/08/29 01:35:06;;;;;;;;;;;16.60;59.30;;;;;;5034746;28;19913;-76
2023/08/29 01:37:32;;;;;;;;;;;16.60;59.30;;;;;;5036890;28;19964;-75
2023/08/29 01:39:57;;;;;;;;;;;16.70;59.30;;;;;;5037299;28;20303;-76
2023/08/29 01:42:22;;;;;;;;;;;16.60;59.50;;;;;;5033886;28;19945;-76
2023/08/29 01:44:48;;;;;;;;;;;16.70;59.60;;;;;;5034608;28;19917;-75
2023/08/29 01:47:13;;;;;;;;;;;16.70;59.50;;;;;;5033955;28;20016;-77
2023/08/29 01:49:39;;;;;;;;;;;16.70;59.50;;;;;;5033378;28;19914;-75
2023/08/29 01:52:04;;;;;;;;;;;16.60;59.40;;;;;;5035505;28;20388;-76
2023/08/29 01:54:30;;;;;;;;;;;16.60;59.40;;;;;;5036016;28;20427;-76
2023/08/29 01:56:56;;;;;;;;;;;16.50;59.50;;;;;;5036122;28;19913;-75
2023/08/29 01:59:22;;;;;;;;;;;16.60;59.50;;;;;;5037226;28;20416;-72
2023/08/29 02:01:48;;;;;;;;;;;16.50;59.70;;;;;;5040957;28;19913;-75
2023/08/29 02:04:14;;;;;;;;;;;16.50;59.80;;;;;;5039241;28;19920;-76
2023/08/29 02:06:39;;;;;;;;;;;16.50;59.80;;;;;;5037229;28;20015;-76
2023/08/29 02:09:05;;;;;;;;;;;16.60;59.80;;;;;;5022004;28;19928;-76
2023/08/29 02:11:30;;;;;;;;;;;16.60;59.70;;;;;;5015184;28;20388;-68
2023/08/29 02:13:55;;;;;;;;;;;16.70;59.70;;;;;;5012635;28;19917;-68
2023/08/29 02:16:21;;;;;;;;;;;16.60;59.70;;;;;;5013967;28;20314;-68
2023/08/29 02:18:46;;;;;;;;;;;16.70;59.80;;;;;;5032210;28;19909;-68
2023/08/29 02:21:13;;;;;;;;;;;16.70;59.90;;;;;;5033415;28;19940;-68
2023/08/29 02:23:38;;;;;;;;;;;16.70;60.00;;;;;;5029448;28;19924;-68
2023/08/29 02:26:04;;;;;;;;;;;16.70;59.90;;;;;;5032891;28;19913;-68
2023/08/29 02:28:32;;;;;;;;;;;16.80;60.00;;;;;;5032236;28;19917;-68
2023/08/29 02:31:02;;;;;;;;;;;16.80;59.90;;;;;;5033715;28;20349;-68
2023/08/29 02:33:28;;;;;;;;;;;16.80;59.90;;;;;;5033051;28;20339;-68
2023/08/29 02:35:53;;;;;;;;;;;16.80;59.90;;;;;;5034011;28;19913;-68
2023/08/29 02:38:18;;;;;;;;;;;16.80;59.80;;;;;;5031352;28;19924;-69
2023/08/29 02:40:44;;;;;;;;;;;16.80;59.90;;;;;;5032718;28;19924;-68
2023/08/29 02:43:09;;;;;;;;;;;16.80;59.90;;;;;;5032276;28;19921;-68
2023/08/29 02:45:35;;;;;;;;;;;16.80;60.00;;;;;;5033204;28;19913;-68
2023/08/29 02:48:00;;;;;;;;;;;16.80;60.00;;;;;;5031563;28;19953;-69
2023/08/29 02:50:26;;;;;;;;;;;16.80;60.00;;;;;;5033127;28;19917;-68
2023/08/29 02:52:51;;;;;;;;;;;16.70;60.20;;;;;;5032820;28;20416;-68
2023/08/29 02:55:17;;;;;;;;;;;16.80;60.20;;;;;;5024116;28;19924;-68
2023/08/29 02:57:42;;;;;;;;;;;16.70;60.10;;;;;;5031264;28;19925;-68
2023/08/29 03:00:10;;;;;;;;;;;16.80;60.10;;;;;;5032616;28;19920;-68
2023/08/29 03:02:36;;;;;;;;;;;16.70;60.20;;;;;;5023408;28;20289;-68
2023/08/29 03:05:02;;;;;;;;;;;16.80;60.30;;;;;;5031658;28;19943;-68
2023/08/29 03:07:28;;;;;;;;;;;16.70;60.30;;;;;;5032602;28;19917;-69
2023/08/29 03:09:53;;;;;;;;;;;16.80;60.30;;;;;;5032592;28;20272;-69
2023/08/29 03:12:19;;;;;;;;;;;16.80;60.30;;;;;;5032427;28;19933;-68
2023/08/29 03:14:44;;;;;;;;;;;16.80;60.50;;;;;;5032574;28;19948;-68
2023/08/29 03:17:10;;;;;;;;;;;16.80;60.70;;;;;;5031022;28;19936;-69
2023/08/29 03:19:35;;;;;;;;;;;16.90;60.80;;;;;;5032242;28;20187;-67
2023/08/29 03:22:00;;;;;;;;;;;16.90;60.80;;;;;;5028614;28;19960;-69
2023/08/29 03:24:26;;;;;;;;;;;17.00;60.80;;;;;;5032345;28;19939;-67
2023/08/29 03:26:51;;;;;;;;;;;17.10;60.90;;;;;;5032084;28;19990;-67
2023/08/29 03:29:17;;;;;;;;;;;17.10;60.80;;;;;;5032094;28;19921;-68
2023/08/29 03:31:42;;;;;;;;;;;17.20;60.70;;;;;;5029387;28;19971;-67
2023/08/29 03:34:08;;;;;;;;;;;17.20;60.70;;;;;;5018325;28;20384;-68
2023/08/29 03:36:33;;;;;;;;;;;17.30;60.70;;;;;;5030919;28;19968;-70
2023/08/29 03:38:58;;;;;;;;;;;17.30;60.70;;;;;;5029642;28;19913;-68
2023/08/29 03:41:24;;;;;;;;;;;17.30;60.70;;;;;;5031700;28;19984;-68
2023/08/29 03:43:51;;;;;;;;;;;17.40;60.70;;;;;;5029099;28;19915;-68
2023/08/29 03:46:17;;;;;;;;;;;17.40;60.60;;;;;;5028565;28;20428;-68
2023/08/29 03:48:42;;;;;;;;;;;17.40;60.60;;;;;;5031642;28;20027;-67
2023/08/29 03:51:08;;;;;;;;;;;17.40;60.50;;;;;;5031523;28;20373;-68
2023/08/29 03:53:34;;;;;;;;;;;17.40;60.60;;;;;;5031420;28;20323;-68
2023/08/29 03:56:00;;;;;;;;;;;17.40;60.60;;;;;;5032195;28;19913;-68
2023/08/29 03:58:26;;;;;;;;;;;17.40;60.70;;;;;;5028650;28;19917;-68
2023/08/29 04:00:52;;;;;;;;;;;17.30;60.80;;;;;;5031843;28;19924;-68
2023/08/29 04:03:18;;;;;;;;;;;17.30;60.80;;;;;;5031140;28;19917;-68
2023/08/29 04:05:45;;;;;;;;;;;17.30;60.80;;;;;;5031253;28;19920;-67
2023/08/29 04:08:10;;;;;;;;;;;17.30;60.80;;;;;;5031332;28;19917;-69
2023/08/29 04:10:39;;;;;;;;;;;17.30;60.80;;;;;;5031996;28;20012;-69
2023/08/29 04:13:06;;;;;;;;;;;17.20;60.80;;;;;;5032125;28;19967;-69
2023/08/29 04:15:32;;;;;;;;;;;17.20;60.70;;;;;;5025876;28;19929;-71
2023/08/29 04:17:57;;;;;;;;;;;17.20;60.80;;;;;;5010869;28;19917;-69
2023/08/29 04:20:23;;;;;;;;;;;17.20;60.80;;;;;;5010046;28;19914;-68
2023/08/29 04:22:49;;;;;;;;;;;17.10;61.10;;;;;;5021199;28;19920;-68
2023/08/29 04:25:14;;;;;;;;;;;17.10;61.20;;;;;;5029524;28;20285;-68
2023/08/29 04:27:41;;;;;;;;;;;17.00;61.20;;;;;;5029482;28;20459;-67
2023/08/29 04:30:07;;;;;;;;;;;17.10;61.20;;;;;;5027651;28;19913;-68
2023/08/29 04:32:36;;;;;;;;;;;17.00;61.10;;;;;;5031075;28;19925;-74
2023/08/29 04:35:08;;;;;;;;;;;17.00;61.10;;;;;;5039560;28;20385;-75
2023/08/29 04:37:36;;;;;;;;;;;16.90;61.20;;;;;;5038638;28;19929;-74
2023/08/29 04:40:06;;;;;;;;;;;17.00;61.20;;;;;;5036830;28;19919;-75
2023/08/29 04:42:32;;;;;;;;;;;16.90;61.30;;;;;;5038519;28;19996;-72
2023/08/29 04:44:58;;;;;;;;;;;17.00;61.30;;;;;;5036254;28;19921;-75
2023/08/29 04:47:23;;;;;;;;;;;17.00;61.40;;;;;;5034632;28;19925;-75
2023/08/29 04:49:48;;;;;;;;;;;17.00;61.30;;;;;;5034125;28;19913;-74
2023/08/29 04:52:14;;;;;;;;;;;17.00;61.50;;;;;;5036224;28;19921;-76
2023/08/29 04:54:39;;;;;;;;;;;17.00;61.60;;;;;;5035631;28;19909;-75
2023/08/29 04:57:05;;;;;;;;;;;17.00;61.80;;;;;;5034544;28;20023;-75
2023/08/29 04:59:30;;;;;;;;;;;17.10;61.70;;;;;;5031576;28;20429;-76
2023/08/29 05:01:56;;;;;;;;;;;17.20;61.60;;;;;;5032513;28;20099;-74
2023/08/29 05:04:21;;;;;;;;;;;17.20;61.60;;;;;;5034782;28;19913;-73
2023/08/29 05:06:47;;;;;;;;;;;17.20;61.60;;;;;;5042166;28;19921;-75
2023/08/29 05:09:12;;;;;;;;;;;17.30;61.50;;;;;;5038185;28;19913;-73
2023/08/29 05:11:38;;;;;;;;;;;17.30;61.50;;;;;;5035724;28;19921;-75
2023/08/29 05:14:03;;;;;;;;;;;17.30;61.50;;;;;;5036974;28;19916;-74
2023/08/29 05:16:29;;;;;;;;;;;17.40;61.60;;;;;;5037529;28;19996;-75
2023/08/29 05:18:54;;;;;;;;;;;17.40;61.60;;;;;;5023897;28;19914;-73
2023/08/29 05:21:19;;;;;;;;;;;17.40;61.70;;;;;;5019413;28;19924;-74
2023/08/29 05:23:45;;;;;;;;;;;17.50;61.90;;;;;;5017588;28;19917;-74
2023/08/29 05:26:10;;;;;;;;;;;17.50;61.90;;;;;;5020619;28;19963;-74
2023/08/29 05:28:36;;;;;;;;;;;17.60;61.90;;;;;;5037668;28;19913;-74
2023/08/29 05:31:01;;;;;;;;;;;17.70;61.90;;;;;;5040319;28;19919;-74
2023/08/29 05:33:27;;;;;;;;;;;17.70;61.80;;;;;;5029768;28;19917;-74
2023/08/29 05:35:52;;;;;;;;;;;17.70;61.90;;;;;;5036357;28;19917;-75
2023/08/29 05:38:17;;;;;;;;;;;17.80;61.90;;;;;;5039849;28;20435;-75
2023/08/29 05:40:43;;;;;;;;;;;17.80;61.80;;;;;;5037699;28;19917;-75
2023/08/29 05:43:08;;;;;;;;;;;17.80;61.80;;;;;;5039929;28;20011;-75
2023/08/29 05:45:34;;;;;;;;;;;17.90;61.80;;;;;;5038239;28;19991;-75
2023/08/29 05:47:59;;;;;;;;;;;18.00;61.80;;;;;;5040025;28;19917;-75
2023/08/29 05:50:25;;;;;;;;;;;18.00;61.80;;;;;;5030415;28;19917;-75
2023/08/29 05:52:50;;;;;;;;;;;18.10;61.80;;;;;;5020390;28;19913;-76
2023/08/29 05:55:16;;;;;;;;;;;18.10;61.70;;;;;;5018960;28;20437;-76
2023/08/29 05:57:41;;;;;;;;;;;18.20;61.70;;;;;;5015591;28;19913;-75
2023/08/29 06:00:07;;;;;;;;;;;18.20;61.70;;;;;;5017434;28;19921;-75
2023/08/29 06:02:33;;;;;;;;;;;18.30;61.60;;;;;;5025571;28;19924;-74
2023/08/29 06:04:59;;;;;;;;;;;18.30;61.70;;;;;;5036076;28;19913;-75
2023/08/29 06:07:24;;;;;;;;;;;18.40;61.60;;;;;;5033217;28;19966;-75
2023/08/29 06:09:50;;;;;;;;;;;18.40;61.60;;;;;;5033576;28;20307;-75
2023/08/29 06:12:15;;;;;;;;;;;18.60;61.70;;;;;;5034167;28;19913;-76
2023/08/29 06:14:41;;;;;;;;;;;18.50;61.70;;;;;;5035688;28;20002;-76
2023/08/29 06:17:06;;;;;;;;;;;18.60;61.70;;;;;;5037554;28;19913;-75
2023/08/29 06:19:32;;;;;;;;;;;18.60;61.60;;;;;;5040484;28;19913;-74
2023/08/29 06:21:57;;;;;;;;;;;18.70;61.60;;;;;;5041321;28;19924;-75
2023/08/29 06:24:23;;;;;;;;;;;18.70;61.70;;;;;;5040905;28;19919;-75
2023/08/29 06:26:49;;;;;;;;;;;18.80;61.60;;;;;;5041680;28;19921;-75
2023/08/29 06:29:14;;;;;;;;;;;18.90;61.70;;;;;;5041080;28;19909;-75
2023/08/29 06:31:41;;;;;;;;;;;19.00;61.60;;;;;;5041382;28;20412;-74
2023/08/29 06:34:06;;;;;;;;;;;19.00;61.60;;;;;;5041885;28;20398;-74
2023/08/29 06:36:32;;;;;;;;;;;19.10;61.60;;;;;;5041012;28;19921;-73
2023/08/29 06:38:57;;;;;;;;;;;19.20;61.60;;;;;;5037993;28;20957;-73
2023/08/29 06:41:23;;;;;;;;;;;19.30;61.60;;;;;;5038778;28;19921;-73
2023/08/29 06:43:48;;;;;;;;;;;19.40;61.60;;;;;;5038445;28;19909;-74
2023/08/29 06:46:14;;;;;;;;;;;19.50;61.60;;;;;;5040303;28;19996;-74
2023/08/29 06:48:40;;;;;;;;;;;19.60;61.60;;;;;;5040935;28;19914;-75
2023/08/29 06:51:06;;;;;;;;;;;19.70;61.50;;;;;;5039614;28;19917;-75
2023/08/29 06:53:32;;;;;;;;;;;19.80;61.50;;;;;;5033920;28;19983;-68
2023/08/29 06:55:57;;;;;;;;;;;19.80;61.40;;;;;;5033273;28;20373;-69
2023/08/29 06:58:23;;;;;;;;;;;19.90;61.40;;;;;;5032800;28;20296;-68
2023/08/29 07:00:48;;;;;;;;;;;20.00;61.40;;;;;;5032984;28;20275;-68
2023/08/29 07:03:14;;;;;;;;;;;20.00;61.30;;;;;;5024765;28;20309;-69
2023/08/29 07:05:39;;;;;;;;;;;20.10;61.30;;;;;;5010270;28;19919;-68
2023/08/29 07:08:05;;;;;;;;;;;20.20;61.20;;;;;;5021126;28;19925;-68
2023/08/29 07:10:30;;;;;;;;;;;20.30;61.20;;;;;;5031512;28;19959;-68
2023/08/29 07:12:56;;;;;;;;;;;20.30;61.00;;;;;;5032425;28;19928;-68
2023/08/29 07:15:22;;;;;;;;;;;20.30;61.00;;;;;;5031819;28;19923;-68
2023/08/29 07:17:48;;;;;;;;;;;20.40;61.00;;;;;;5032290;28;19962;-69
2023/08/29 07:20:15;;;;;;;;;;;20.50;61.00;;;;;;5031421;28;20385;-68
2023/08/29 07:22:43;;;;;;;;;;;20.60;60.90;;;;;;5032522;28;19913;-69
2023/08/29 07:25:09;;;;;;;;;;;20.70;61.00;;;;;;5030749;28;19917;-69
2023/08/29 07:27:34;;;;;;;;;;;20.80;60.90;;;;;;5029693;28;19927;-69
2023/08/29 07:30:00;;;;;;;;;;;20.90;60.80;;;;;;5029186;28;20301;-70
2023/08/29 07:32:25;;;;;;;;;;;21.00;60.80;;;;;;5031792;28;19932;-69
2023/08/29 07:34:51;;;;;;;;;;;21.10;60.80;;;;;;5031891;28;19999;-69
2023/08/29 07:37:17;;;;;;;;;;;21.30;60.70;;;;;;5031606;28;19917;-70
2023/08/29 07:39:43;;;;;;;;;;;21.40;60.50;;;;;;5031727;28;20008;-69
2023/08/29 07:42:08;;;;;;;;;;;21.60;60.50;;;;;;5030175;28;19917;-68
2023/08/29 07:44:34;;;;;;;;;;;21.70;60.20;;;;;;5031676;28;19917;-69
2023/08/29 07:46:59;;;;;;;;;;;21.80;60.20;;;;;;5029692;28;19921;-68
2023/08/29 07:49:25;;;;;;;;;;;22.00;60.20;;;;;;5031742;28;19963;-69
2023/08/29 07:51:52;;;;;;;;;;;22.20;60.10;;;;;;5024803;28;19935;-68
2023/08/29 07:54:18;;;;;;;;;;;22.40;59.80;;;;;;5031764;28;19935;-69
2023/08/29 07:56:43;;;;;;;;;;;22.60;59.60;;;;;;5030595;28;20015;-69
2023/08/29 07:59:09;;;;;;;;;;;22.80;59.60;;;;;;5030932;28;19925;-68
2023/08/29 08:01:35;;;;;;;;;;;23.00;59.10;;;;;;5031437;28;19913;-76
2023/08/29 08:04:01;;;;;;;;;;;23.20;58.50;;;;;;5036315;28;19913;-77
2023/08/29 08:06:26;;;;;;;;;;;23.30;58.00;;;;;;5037689;28;19985;-72
2023/08/29 08:08:53;;;;;;;;;;;23.40;57.70;;;;;;5037577;28;20361;-77
2023/08/29 08:11:19;;;;;;;;;;;23.60;57.40;;;;;;5037068;28;19917;-75
2023/08/29 08:13:44;;;;;;;;;;;23.70;56.80;;;;;;5037941;28;19951;-77
2023/08/29 08:16:10;;;;;;;;;;;23.70;56.10;;;;;;5039972;28;19928;-77
2023/08/29 08:18:35;;;;;;;;;;;23.80;55.80;;;;;;5037381;28;19995;-77
2023/08/29 08:21:00;;;;;;;;;;;23.90;55.20;;;;;;5038064;28;20320;-75
2023/08/29 08:23:26;;;;;;;;;;;23.90;54.70;;;;;;5037346;28;20362;-77
2023/08/29 08:25:51;;;;;;;;;;;24.00;54.60;;;;;;5022688;28;20389;-76
2023/08/29 08:28:17;;;;;;;;;;;24.10;54.60;;;;;;5021605;28;19921;-76
2023/08/29 08:30:42;;;;;;;;;;;24.20;54.50;;;;;;5039083;28;19924;-77
2023/08/29 08:33:07;;;;;;;;;;;24.40;54.30;;;;;;5037939;28;20460;-76
2023/08/29 08:35:33;;;;;;;;;;;24.50;53.80;;;;;;5038563;28;20320;-71
2023/08/29 08:37:58;;;;;;;;;;;24.70;53.50;;;;;;5036167;28;20281;-76
2023/08/29 08:40:24;;;;;;;;;;;24.80;53.10;;;;;;5036401;28;19967;-74
2023/08/29 08:42:50;;;;;;;;;;;24.90;52.60;;;;;;5026947;28;19980;-75
2023/08/29 08:45:16;;;;;;;;;;;25.00;51.90;;;;;;5038647;28;20257;-75
2023/08/29 08:47:42;;;;;;;;;;;25.10;51.70;;;;;;5023371;28;19924;-75
2023/08/29 08:50:08;;;;;;;;;;;25.10;51.30;;;;;;5022281;28;20044;-75
2023/08/29 08:52:34;;;;;;;;;;;25.20;51.00;;;;;;5018507;28;19953;-75
2023/08/29 08:55:00;;;;;;;;;;;25.30;51.10;;;;;;5030205;28;19913;-75
2023/08/29 08:57:25;;;;;;;;;;;25.40;50.50;;;;;;5033698;28;20035;-76
2023/08/29 08:59:51;;;;;;;;;;;25.50;50.30;;;;;;5032031;28;19927;-75
2023/08/29 09:02:17;;;;;;;;;;;25.60;50.00;;;;;;5021547;28;20351;-75
2023/08/29 09:04:43;;;;;;;;;;;25.70;49.80;;;;;;5021005;28;20369;-75
2023/08/29 09:07:08;;;;;;;;;;;25.80;49.10;;;;;;5020440;28;19929;-76
2023/08/29 09:09:33;;;;;;;;;;;25.80;48.60;;;;;;5026164;28;19925;-76
2023/08/29 09:11:59;;;;;;;;;;;25.80;48.20;;;;;;5018120;28;19914;-68
2023/08/29 09:14:25;;;;;;;;;;;25.80;48.00;;;;;;5027523;28;19913;-67
2023/08/29 09:16:55;;;;;;;;;;;25.80;47.60;;;;;;5026786;28;19914;-68
2023/08/29 09:19:22;;;;;;;;;;;25.80;47.30;;;;;;5022039;28;19975;-69
2023/08/29 09:21:48;;;;;;;;;;;25.80;47.20;;;;;;5022191;28;19917;-68
2023/08/29 09:24:13;;;;;;;;;;;25.90;47.10;;;;;;5014738;28;19920;-68
2023/08/29 09:26:40;;;;;;;;;;;26.00;46.80;;;;;;5021312;28;19921;-68
2023/08/29 09:29:18;;;;;;;;;;;26.00;46.00;;;;;;5028318;28;19918;-68
2023/08/29 09:31:46;;;;;;;;;;;26.10;46.00;;;;;;5018502;28;20007;-68
2023/08/29 09:34:29;;;;;;;;;;;26.20;46.40;;;;;;5034246;28;19953;-68
2023/08/29 09:36:55;;;;;;;;;;;26.50;46.50;;;;;;5031754;28;20055;-68
2023/08/29 09:39:21;;;;;;;;;;;26.80;46.20;;;;;;5029353;28;19913;-69
2023/08/29 09:42:07;;;;;;;;;;;27.00;45.80;;;;;;5020157;28;19917;-68
2023/08/29 09:44:36;;;;;;;;;;;27.30;45.20;;;;;;5027498;28;19917;-68
2023/08/29 09:47:02;;;;;;;;;;;27.50;44.70;;;;;;5026102;28;19926;-68
2023/08/29 09:49:40;;;;;;;;;;;27.70;44.10;;;;;;5019992;28;20408;-69
2023/08/29 09:52:06;;;;;;;;;;;27.90;43.80;;;;;;5013352;28;19932;-69
2023/08/29 09:54:32;;;;;;;;;;;28.00;43.20;;;;;;5032931;28;20016;-70
2023/08/29 09:57:00;;;;;;;;;;;28.20;43.00;;;;;;5025040;28;20374;-68
2023/08/29 09:59:27;;;;;;;;;;;28.40;42.90;;;;;;5020557;28;20047;-70
2023/08/29 10:01:53;;;;;;;;;;;28.60;42.50;;;;;;5012074;28;19944;-68
2023/08/29 10:04:20;;;;;;;;;;;28.80;42.40;;;;;;5028103;28;20373;-70
2023/08/29 10:06:47;;;;;;;;;;;29.00;41.60;;;;;;5032517;28;19921;-68
2023/08/29 10:09:13;;;;;;;;;;;29.00;41.00;;;;;;5033770;28;19999;-68
2023/08/29 10:11:39;;;;;;;;;;;29.10;40.90;;;;;;5032957;28;20441;-68
2023/08/29 10:14:05;;;;;;;;;;;29.20;40.90;;;;;;5031377;28;20024;-68
2023/08/29 10:16:31;;;;;;;;;;;29.50;40.80;;;;;;5033327;28;19921;-68
2023/08/29 10:18:56;;;;;;;;;;;29.80;40.60;;;;;;5033389;28;19909;-68
2023/08/29 10:21:23;;;;;;;;;;;29.80;39.00;;;;;;5032744;28;19925;-68
2023/08/29 10:23:49;;;;;;;;;;;29.90;38.50;;;;;;5054317;28;19928;-76
2023/08/29 10:26:16;;;;;;;;;;;29.80;38.40;;;;;;5055262;28;19963;-73
2023/08/29 10:28:42;;;;;;;;;;;29.80;37.90;;;;;;5056445;28;19929;-73
2023/08/29 10:31:08;;;;;;;;;;;29.80;38.20;;;;;;5055513;28;19921;-76
2023/08/29 10:33:36;;;;;;;;;;;30.00;38.30;;;;;;5052201;28;19901;-74
2023/08/29 10:36:03;;;;;;;;;;;30.10;38.00;;;;;;5035572;28;20372;-77
2023/08/29 10:38:30;;;;;;;;;;;30.10;36.90;;;;;;5038367;28;19909;-77
2023/08/29 10:41:04;;;;;;;;;;;29.80;36.20;;;;;;5038741;28;20000;-77
2023/08/29 10:43:30;;;;;;;;;;;29.80;36.20;;;;;;5037483;28;20346;-78
2023/08/29 10:45:56;;;;;;;;;;;29.70;36.60;;;;;;5037906;28;19968;-76
2023/08/29 10:48:42;;;;;;;;;;;29.70;36.10;;;;;;5040222;28;19979;-76
2023/08/29 10:51:10;;;;;;;;;;;29.60;36.20;;;;;;5036954;28;20391;-76
2023/08/29 10:53:47;;;;;;;;;;;29.60;36.50;;;;;;5039901;28;19909;-78
2023/08/29 10:56:13;;;;;;;;;;;29.60;36.60;;;;;;5039017;28;19921;-77
2023/08/29 10:58:40;;;;;;;;;;;29.80;36.80;;;;;;5039016;28;19981;-77
2023/08/29 11:01:06;;;;;;;;;;;30.00;36.50;;;;;;5037008;28;19926;-76
2023/08/29 11:03:39;;;;;;;;;;;30.20;35.90;;;;;;5036197;28;20284;-77
2023/08/29 11:06:04;;;;;;;;;;;30.20;35.40;;;;;;5036008;28;19964;-76
2023/08/29 11:08:30;;;;;;;;;;;30.30;35.20;;;;;;5037251;28;19913;-78
2023/08/29 11:11:14;;;;;;;;;;;30.50;35.50;;;;;;5034640;28;19917;-76
2023/08/29 11:13:58;;;;;;;;;;;30.70;34.90;;;;;;5037725;28;20419;-77
2023/08/29 11:16:30;;;;;;;;;;;30.80;34.70;;;;;;5037810;28;19921;-75
2023/08/29 11:19:12;;;;;;;;;;;31.00;34.80;;;;;;5035728;28;20004;-77
2023/08/29 11:21:37;;;;;;;;;;;31.10;34.60;;;;;;5039232;28;20377;-77
2023/08/29 11:24:05;;;;;;;;;;;31.20;34.50;;;;;;5037295;28;19920;-77
2023/08/29 11:26:32;;;;;;;;;;;31.40;34.30;;;;;;5029522;28;20297;-76
2023/08/29 11:28:57;;;;;;;;;;;31.40;33.20;;;;;;5027765;28;19914;-77
2023/08/29 11:31:22;;;;;;;;;;;31.30;33.40;;;;;;5018474;28;19975;-76
2023/08/29 11:33:48;;;;;;;;;;;31.30;33.20;;;;;;5037780;28;19935;-76
2023/08/29 11:36:14;;;;;;;;;;;31.10;32.90;;;;;;5037798;28;19913;-77
2023/08/29 11:38:41;;;;;;;;;;;31.20;33.60;;;;;;5039020;28;19944;-77
2023/08/29 11:41:07;;;;;;;;;;;31.30;33.80;;;;;;5038091;28;19918;-76
2023/08/29 11:43:33;;;;;;;;;;;31.40;33.80;;;;;;5042187;28;19920;-76
2023/08/29 11:46:01;;;;;;;;;;;31.60;33.50;;;;;;5034062;28;20772;-76
2023/08/29 11:48:28;;;;;;;;;;;31.60;32.90;;;;;;5034540;28;19917;-76
2023/08/29 11:51:04;;;;;;;;;;;31.60;32.80;;;;;;5036534;28;20396;-76
2023/08/29 11:53:31;;;;;;;;;;;31.50;32.50;;;;;;5029506;28;20430;-67
2023/08/29 11:55:57;;;;;;;;;;;31.50;33.20;;;;;;5031114;28;20026;-68
2023/08/29 11:58:49;;;;;;;;;;;31.60;32.70;;;;;;5031937;28;19956;-69
2023/08/29 12:01:15;;;;;;;;;;;31.40;32.70;;;;;;5029881;28;20381;-70
2023/08/29 12:03:40;;;;;;;;;;;31.40;32.90;;;;;;5031592;28;19991;-68
2023/08/29 12:06:09;;;;;;;;;;;31.50;32.70;;;;;;5031521;28;19941;-68
2023/08/29 12:08:35;;;;;;;;;;;31.60;32.70;;;;;;5030873;28;19995;-68
2023/08/29 12:11:00;;;;;;;;;;;31.60;32.20;;;;;;5032046;28;19920;-68
2023/08/29 12:13:26;;;;;;;;;;;31.60;32.50;;;;;;5031362;28;19917;-69
2023/08/29 12:15:51;;;;;;;;;;;31.60;32.40;;;;;;5030585;28;19932;-68
2023/08/29 12:18:21;;;;;;;;;;;31.60;32.60;;;;;;5029326;28;19917;-68
2023/08/29 12:20:47;;;;;;;;;;;31.80;32.60;;;;;;5031767;28;19921;-68
2023/08/29 12:23:13;;;;;;;;;;;31.80;32.70;;;;;;5029318;28;19921;-68
2023/08/29 12:25:38;;;;;;;;;;;31.90;32.40;;;;;;5031664;28;19921;-68
2023/08/29 12:28:03;;;;;;;;;;;31.90;32.00;;;;;;5032844;28;19999;-68
2023/08/29 12:30:30;;;;;;;;;;;31.80;31.70;;;;;;5034249;28;19917;-68
2023/08/29 12:32:56;;;;;;;;;;;31.70;31.80;;;;;;5035430;28;19923;-68
2023/08/29 12:35:21;;;;;;;;;;;31.70;32.10;;;;;;5034819;28;19921;-68
2023/08/29 12:37:48;;;;;;;;;;;31.70;31.90;;;;;;5034638;28;20415;-68
2023/08/29 12:40:14;;;;;;;;;;;31.60;31.30;;;;;;5035466;28;19963;-68
2023/08/29 12:42:41;;;;;;;;;;;31.40;31.30;;;;;;5034424;28;19971;-68
2023/08/29 12:45:07;;;;;;;;;;;31.40;31.40;;;;;;5034802;28;19928;-68
2023/08/29 12:47:33;;;;;;;;;;;31.40;31.50;;;;;;5033986;28;20279;-68
2023/08/29 12:49:59;;;;;;;;;;;31.50;31.70;;;;;;5032203;28;20026;-68
2023/08/29 12:52:24;;;;;;;;;;;31.70;31.60;;;;;;5024902;28;19913;-68
2023/08/29 12:54:51;;;;;;;;;;;31.80;31.20;;;;;;5025894;28;19917;-68
2023/08/29 12:57:17;;;;;;;;;;;31.90;30.50;;;;;;5020164;28;19999;-68
2023/08/29 12:59:42;;;;;;;;;;;31.80;30.20;;;;;;5028140;28;20080;-68
2023/08/29 13:02:08;;;;;;;;;;;31.70;30.60;;;;;;5035611;28;19913;-77
2023/08/29 13:04:34;;;;;;;;;;;31.70;30.30;;;;;;5041460;28;20283;-76
2023/08/29 13:06:59;;;;;;;;;;;31.60;30.20;;;;;;5040158;28;19917;-77
2023/08/29 13:09:25;;;;;;;;;;;31.50;30.80;;;;;;5041439;28;20391;-77
2023/08/29 13:11:50;;;;;;;;;;;31.50;30.70;;;;;;5039636;28;20381;-75
2023/08/29 13:14:16;;;;;;;;;;;31.50;31.00;;;;;;5041329;28;20254;-77
2023/08/29 13:16:41;;;;;;;;;;;31.70;30.80;;;;;;5038820;28;19920;-77
2023/08/29 13:19:06;;;;;;;;;;;31.70;30.60;;;;;;5038003;28;19964;-76
2023/08/29 13:21:32;;;;;;;;;;;31.70;30.20;;;;;;5036583;28;19924;-76
2023/08/29 13:23:57;;;;;;;;;;;31.50;30.10;;;;;;5036977;28;19921;-77
2023/08/29 13:26:23;;;;;;;;;;;31.40;30.20;;;;;;5037278;28;20000;-77
2023/08/29 13:28:49;;;;;;;;;;;31.40;30.60;;;;;;5038145;28;19909;-77
2023/08/29 13:31:15;;;;;;;;;;;31.50;30.00;;;;;;5036703;28;19913;-77
2023/08/29 13:33:41;;;;;;;;;;;31.60;29.90;;;;;;5035704;28;20306;-77
2023/08/29 13:36:06;;;;;;;;;;;31.40;29.00;;;;;;5037376;28;19924;-77
2023/08/29 13:38:32;;;;;;;;;;;31.30;29.20;;;;;;5038087;28;19913;-76
2023/08/29 13:40:57;;;;;;;;;;;31.10;29.10;;;;;;5039305;28;19924;-76
2023/08/29 13:43:23;;;;;;;;;;;31.00;29.80;;;;;;5036341;28;19971;-77
2023/08/29 13:45:48;;;;;;;;;;;31.10;30.20;;;;;;5038528;28;19925;-78
2023/08/29 13:48:14;;;;;;;;;;;31.20;29.80;;;;;;5037654;28;19921;-76
2023/08/29 13:50:40;;;;;;;;;;;31.20;29.50;;;;;;5037350;28;19921;-77
2023/08/29 13:53:05;;;;;;;;;;;31.00;29.90;;;;;;5035425;28;19921;-77
2023/08/29 13:55:31;;;;;;;;;;;31.00;29.80;;;;;;5037697;28;19917;-77
2023/08/29 13:57:56;;;;;;;;;;;30.80;29.90;;;;;;5037546;28;19996;-77
2023/08/29 14:00:22;;;;;;;;;;;30.60;30.10;;;;;;5037008;28;20381;-76
2023/08/29 14:02:47;;;;;;;;;;;30.30;29.90;;;;;;5036299;28;19909;-77
2023/08/29 14:05:13;;;;;;;;;;;30.00;30.50;;;;;;5034734;28;19917;-77
2023/08/29 14:07:39;;;;;;;;;;;29.80;30.90;;;;;;5035928;28;20365;-77
2023/08/29 14:10:05;;;;;;;;;;;29.70;31.10;;;;;;5034435;28;19921;-76
2023/08/29 14:12:30;;;;;;;;;;;29.50;31.10;;;;;;5034757;28;19916;-77